sensor_id;sensor_type;location;lat;lon;timestamp;P1;durP1;ratioP1;P2;durP2;ratioP2
84244;SDS011;74383;44.552;18.100;2024-03-23T00:55:59;28.90;;;17.42;;
84244;SDS011;74383;44.552;18.100;2024-03-23T00:58:25;27.80;;;16.63;;
84244;SDS011;74383;44.552;18.100;2024-03-23T01:00:50;30.30;;;17.75;;
84244;SDS011;74383;44.552;18.100;2024-03-23T01:03:16;34.58;;;18.75;;
84244;SDS011;74383;44.552;18.100;2024-03-23T01:05:42;28.52;;;17.30;;
84244;SDS011;74383;44.552;18.100;2024-03-23T01:08:07;34.75;;;18.02;;
84244;SDS011;74383;44.552;18.100;2024-03-23T01:10:33;32.67;;;18.95;;
84244;SDS011;74383;44.552;18.100;2024-03-23T01:12:58;31.10;;;19.67;;
84244;SDS011;74383;44.552;18.100;2024-03-23T01:15:24;31.70;;;18.10;;
84244;SDS011;74383;44.552;18.100;2024-03-23T01:17:49;31.92;;;19.58;;
84244;SDS011;74383;44.552;18.100;2024-03-23T01:20:15;31.90;;;19.75;;
84244;SDS011;74383;44.552;18.100;2024-03-23T01:22:41;26.23;;;17.42;;
84244;SDS011;74383;44.552;18.100;2024-03-23T01:25:07;31.35;;;17.20;;
84244;SDS011;74383;44.552;18.100;2024-03-23T01:27:33;27.95;;;18.10;;
84244;SDS011;74383;44.552;18.100;2024-03-23T01:29:59;33.25;;;18.45;;
84244;SDS011;74383;44.552;18.100;2024-03-23T01:32:25;39.70;;;22.23;;
84244;SDS011;74383;44.552;18.100;2024-03-23T01:34:50;48.90;;;25.52;;
84244;SDS011;74383;44.552;18.100;2024-03-23T01:37:16;30.17;;;19.27;;
84244;SDS011;74383;44.552;18.100;2024-03-23T01:39:41;25.20;;;15.30;;
84244;SDS011;74383;44.552;18.100;2024-03-23T01:42:07;24.67;;;14.48;;
84244;SDS011;74383;44.552;18.100;2024-03-23T01:44:32;26.80;;;15.18;;
84244;SDS011;74383;44.552;18.100;2024-03-23T01:46:58;26.92;;;16.20;;
84244;SDS011;74383;44.552;18.100;2024-03-23T01:49:24;25.45;;;15.60;;
84244;SDS011;74383;44.552;18.100;2024-03-23T01:51:49;27.25;;;15.88;;
84244;SDS011;74383;44.552;18.100;2024-03-23T01:54:15;26.98;;;16.27;;
84244;SDS011;74383;44.552;18.100;2024-03-23T01:56:41;21.75;;;14.38;;
84244;SDS011;74383;44.552;18.100;2024-03-23T01:59:07;22.25;;;14.27;;
84244;SDS011;74383;44.552;18.100;2024-03-23T02:01:34;20.85;;;14.40;;
84244;SDS011;74383;44.552;18.100;2024-03-23T02:04:01;25.90;;;15.35;;
84244;SDS011;74383;44.552;18.100;2024-03-23T02:06:27;29.05;;;16.45;;
84244;SDS011;74383;44.552;18.100;2024-03-23T02:08:53;28.17;;;16.60;;
84244;SDS011;74383;44.552;18.100;2024-03-23T02:11:19;24.27;;;15.50;;
84244;SDS011;74383;44.552;18.100;2024-03-23T02:13:45;27.02;;;17.25;;
84244;SDS011;74383;44.552;18.100;2024-03-23T02:16:11;27.70;;;17.20;;
84244;SDS011;74383;44.552;18.100;2024-03-23T02:18:36;37.63;;;21.58;;
84244;SDS011;74383;44.552;18.100;2024-03-23T02:21:02;39.50;;;22.45;;
84244;SDS011;74383;44.552;18.100;2024-03-23T02:23:28;40.92;;;21.10;;
84244;SDS011;74383;44.552;18.100;2024-03-23T02:25:53;41.33;;;22.13;;
84244;SDS011;74383;44.552;18.100;2024-03-23T02:28:19;43.00;;;21.00;;
84244;SDS011;74383;44.552;18.100;2024-03-23T02:30:45;32.88;;;17.77;;
84244;SDS011;74383;44.552;18.100;2024-03-23T02:33:11;39.83;;;20.90;;
84244;SDS011;74383;44.552;18.100;2024-03-23T02:35:36;39.50;;;20.75;;
84244;SDS011;74383;44.552;18.100;2024-03-23T02:38:02;37.65;;;20.50;;
84244;SDS011;74383;44.552;18.100;2024-03-23T02:40:28;38.90;;;20.30;;
84244;SDS011;74383;44.552;18.100;2024-03-23T02:42:54;35.42;;;19.58;;
84244;SDS011;74383;44.552;18.100;2024-03-23T02:45:19;38.70;;;19.95;;
84244;SDS011;74383;44.552;18.100;2024-03-23T02:47:45;26.20;;;16.73;;
84244;SDS011;74383;44.552;18.100;2024-03-23T02:50:11;27.45;;;15.02;;
84244;SDS011;74383;44.552;18.100;2024-03-23T02:52:37;33.03;;;18.55;;
84244;SDS011;74383;44.552;18.100;2024-03-23T02:55:03;31.30;;;17.08;;
84244;SDS011;74383;44.552;18.100;2024-03-23T02:57:29;31.35;;;17.13;;
84244;SDS011;74383;44.552;18.100;2024-03-23T02:59:55;43.60;;;19.75;;
84244;SDS011;74383;44.552;18.100;2024-03-23T03:02:20;33.17;;;19.13;;
84244;SDS011;74383;44.552;18.100;2024-03-23T03:04:46;39.20;;;20.40;;
84244;SDS011;74383;44.552;18.100;2024-03-23T03:07:12;42.08;;;22.30;;
84244;SDS011;74383;44.552;18.100;2024-03-23T03:09:38;47.42;;;23.02;;
84244;SDS011;74383;44.552;18.100;2024-03-23T03:12:05;43.10;;;22.65;;
84244;SDS011;74383;44.552;18.100;2024-03-23T03:14:31;40.10;;;20.92;;
84244;SDS011;74383;44.552;18.100;2024-03-23T03:16:56;39.70;;;20.77;;
84244;SDS011;74383;44.552;18.100;2024-03-23T03:19:22;26.45;;;14.95;;
84244;SDS011;74383;44.552;18.100;2024-03-23T03:21:47;27.52;;;15.93;;
84244;SDS011;74383;44.552;18.100;2024-03-23T03:24:13;31.05;;;16.08;;
84244;SDS011;74383;44.552;18.100;2024-03-23T03:26:39;20.77;;;13.23;;
84244;SDS011;74383;44.552;18.100;2024-03-23T03:29:05;26.73;;;15.27;;
84244;SDS011;74383;44.552;18.100;2024-03-23T03:31:34;30.77;;;15.60;;
84244;SDS011;74383;44.552;18.100;2024-03-23T03:33:59;25.85;;;14.80;;
84244;SDS011;74383;44.552;18.100;2024-03-23T03:36:25;24.10;;;13.75;;
84244;SDS011;74383;44.552;18.100;2024-03-23T03:38:50;26.05;;;13.80;;
84244;SDS011;74383;44.552;18.100;2024-03-23T03:41:16;20.30;;;13.18;;
84244;SDS011;74383;44.552;18.100;2024-03-23T03:43:43;19.30;;;11.70;;
84244;SDS011;74383;44.552;18.100;2024-03-23T03:46:08;17.98;;;10.98;;
84244;SDS011;74383;44.552;18.100;2024-03-23T03:48:34;16.52;;;10.52;;
84244;SDS011;74383;44.552;18.100;2024-03-23T03:51:00;15.07;;;10.10;;
84244;SDS011;74383;44.552;18.100;2024-03-23T03:53:26;20.23;;;10.77;;
84244;SDS011;74383;44.552;18.100;2024-03-23T03:55:51;18.08;;;11.25;;
84244;SDS011;74383;44.552;18.100;2024-03-23T03:58:17;17.88;;;10.68;;
84244;SDS011;74383;44.552;18.100;2024-03-23T04:00:42;23.35;;;12.77;;
84244;SDS011;74383;44.552;18.100;2024-03-23T04:03:08;16.80;;;11.05;;
84244;SDS011;74383;44.552;18.100;2024-03-23T04:05:33;18.88;;;11.30;;
84244;SDS011;74383;44.552;18.100;2024-03-23T04:07:59;19.90;;;11.65;;
84244;SDS011;74383;44.552;18.100;2024-03-23T04:10:25;18.52;;;11.63;;
84244;SDS011;74383;44.552;18.100;2024-03-23T04:12:51;18.27;;;10.73;;
84244;SDS011;74383;44.552;18.100;2024-03-23T04:15:18;20.25;;;11.35;;
84244;SDS011;74383;44.552;18.100;2024-03-23T04:17:44;17.23;;;11.00;;
84244;SDS011;74383;44.552;18.100;2024-03-23T04:20:10;15.95;;;10.68;;
84244;SDS011;74383;44.552;18.100;2024-03-23T04:22:38;16.40;;;11.07;;
84244;SDS011;74383;44.552;18.100;2024-03-23T04:25:04;16.40;;;10.50;;
84244;SDS011;74383;44.552;18.100;2024-03-23T04:27:34;21.10;;;11.60;;
84244;SDS011;74383;44.552;18.100;2024-03-23T04:30:00;20.77;;;11.73;;
84244;SDS011;74383;44.552;18.100;2024-03-23T04:32:30;18.95;;;10.40;;
84244;SDS011;74383;44.552;18.100;2024-03-23T04:34:56;19.00;;;11.25;;
84244;SDS011;74383;44.552;18.100;2024-03-23T04:37:21;20.17;;;12.25;;
84244;SDS011;74383;44.552;18.100;2024-03-23T04:39:47;19.45;;;11.13;;
84244;SDS011;74383;44.552;18.100;2024-03-23T04:42:16;24.13;;;12.13;;
84244;SDS011;74383;44.552;18.100;2024-03-23T04:44:42;24.27;;;12.65;;
84244;SDS011;74383;44.552;18.100;2024-03-23T04:47:08;18.27;;;10.77;;
84244;SDS011;74383;44.552;18.100;2024-03-23T04:49:38;20.15;;;11.68;;
84244;SDS011;74383;44.552;18.100;2024-03-23T04:52:04;18.27;;;11.07;;
84244;SDS011;74383;44.552;18.100;2024-03-23T04:54:30;19.85;;;12.73;;
84244;SDS011;74383;44.552;18.100;2024-03-23T04:56:57;18.77;;;11.25;;
84244;SDS011;74383;44.552;18.100;2024-03-23T04:59:23;26.02;;;13.60;;
84244;SDS011;74383;44.552;18.100;2024-03-23T05:01:48;25.73;;;15.40;;
84244;SDS011;74383;44.552;18.100;2024-03-23T05:04:15;24.50;;;13.63;;
84244;SDS011;74383;44.552;18.100;2024-03-23T05:06:41;24.15;;;14.38;;
84244;SDS011;74383;44.552;18.100;2024-03-23T05:09:06;29.77;;;15.13;;
84244;SDS011;74383;44.552;18.100;2024-03-23T05:11:35;25.85;;;15.10;;
84244;SDS011;74383;44.552;18.100;2024-03-23T05:14:01;23.63;;;13.13;;
84244;SDS011;74383;44.552;18.100;2024-03-23T05:16:28;24.20;;;12.98;;
84244;SDS011;74383;44.552;18.100;2024-03-23T05:18:54;24.63;;;13.85;;
84244;SDS011;74383;44.552;18.100;2024-03-23T05:21:20;27.52;;;15.80;;
84244;SDS011;74383;44.552;18.100;2024-03-23T05:23:45;26.10;;;15.77;;
84244;SDS011;74383;44.552;18.100;2024-03-23T05:26:11;26.45;;;15.25;;
84244;SDS011;74383;44.552;18.100;2024-03-23T05:28:36;29.35;;;14.93;;
84244;SDS011;74383;44.552;18.100;2024-03-23T05:31:02;29.27;;;15.43;;
84244;SDS011;74383;44.552;18.100;2024-03-23T05:33:28;25.90;;;16.13;;
84244;SDS011;74383;44.552;18.100;2024-03-23T05:35:57;31.60;;;17.00;;
84244;SDS011;74383;44.552;18.100;2024-03-23T05:38:23;28.45;;;17.00;;
84244;SDS011;74383;44.552;18.100;2024-03-23T05:41:07;27.45;;;16.63;;
84244;SDS011;74383;44.552;18.100;2024-03-23T05:45:59;27.15;;;15.77;;
84244;SDS011;74383;44.552;18.100;2024-03-23T05:48:26;29.13;;;16.10;;
84244;SDS011;74383;44.552;18.100;2024-03-23T05:50:53;27.58;;;15.48;;
84244;SDS011;74383;44.552;18.100;2024-03-23T05:53:19;29.10;;;15.65;;
84244;SDS011;74383;44.552;18.100;2024-03-23T05:55:48;36.75;;;17.10;;
84244;SDS011;74383;44.552;18.100;2024-03-23T05:58:15;25.17;;;15.20;;
84244;SDS011;74383;44.552;18.100;2024-03-23T06:00:41;30.63;;;16.05;;
84244;SDS011;74383;44.552;18.100;2024-03-23T06:03:07;27.73;;;16.30;;
84244;SDS011;74383;44.552;18.100;2024-03-23T06:05:33;32.03;;;17.20;;
84244;SDS011;74383;44.552;18.100;2024-03-23T06:07:59;28.15;;;16.77;;
84244;SDS011;74383;44.552;18.100;2024-03-23T06:10:24;31.45;;;18.10;;
84244;SDS011;74383;44.552;18.100;2024-03-23T06:12:50;32.30;;;18.40;;
84244;SDS011;74383;44.552;18.100;2024-03-23T06:15:20;30.98;;;18.33;;
84244;SDS011;74383;44.552;18.100;2024-03-23T06:17:45;28.95;;;16.30;;
84244;SDS011;74383;44.552;18.100;2024-03-23T06:20:12;29.40;;;17.02;;
84244;SDS011;74383;44.552;18.100;2024-03-23T06:22:38;31.67;;;16.92;;
84244;SDS011;74383;44.552;18.100;2024-03-23T06:25:04;32.88;;;18.05;;
84244;SDS011;74383;44.552;18.100;2024-03-23T06:27:30;33.15;;;18.35;;
84244;SDS011;74383;44.552;18.100;2024-03-23T06:29:57;29.83;;;17.65;;
84244;SDS011;74383;44.552;18.100;2024-03-23T06:32:23;31.00;;;17.88;;
84244;SDS011;74383;44.552;18.100;2024-03-23T06:34:49;31.30;;;18.13;;
84244;SDS011;74383;44.552;18.100;2024-03-23T06:37:14;28.05;;;16.00;;
84244;SDS011;74383;44.552;18.100;2024-03-23T06:39:40;30.42;;;17.33;;
84244;SDS011;74383;44.552;18.100;2024-03-23T06:42:05;29.80;;;17.83;;
84244;SDS011;74383;44.552;18.100;2024-03-23T06:44:31;30.08;;;17.40;;
84244;SDS011;74383;44.552;18.100;2024-03-23T06:46:57;26.15;;;16.23;;
84244;SDS011;74383;44.552;18.100;2024-03-23T06:49:23;28.98;;;16.08;;
84244;SDS011;74383;44.552;18.100;2024-03-23T06:51:49;26.88;;;16.58;;
84244;SDS011;74383;44.552;18.100;2024-03-23T06:54:16;35.50;;;17.27;;
84244;SDS011;74383;44.552;18.100;2024-03-23T06:56:43;38.58;;;18.15;;
84244;SDS011;74383;44.552;18.100;2024-03-23T06:59:09;29.33;;;18.15;;
84244;SDS011;74383;44.552;18.100;2024-03-23T07:01:35;29.88;;;17.50;;
84244;SDS011;74383;44.552;18.100;2024-03-23T07:04:00;28.55;;;18.75;;
84244;SDS011;74383;44.552;18.100;2024-03-23T07:06:26;32.53;;;19.88;;
84244;SDS011;74383;44.552;18.100;2024-03-23T07:08:52;28.75;;;17.80;;
84244;SDS011;74383;44.552;18.100;2024-03-23T07:11:21;29.38;;;17.73;;
84244;SDS011;74383;44.552;18.100;2024-03-23T07:13:49;30.40;;;18.83;;
84244;SDS011;74383;44.552;18.100;2024-03-23T07:16:15;42.47;;;25.00;;
84244;SDS011;74383;44.552;18.100;2024-03-23T07:18:41;41.95;;;23.75;;
84244;SDS011;74383;44.552;18.100;2024-03-23T07:21:07;39.30;;;21.77;;
84244;SDS011;74383;44.552;18.100;2024-03-23T07:23:33;37.47;;;21.27;;
84244;SDS011;74383;44.552;18.100;2024-03-23T07:25:59;30.42;;;19.98;;
84244;SDS011;74383;44.552;18.100;2024-03-23T07:28:26;34.83;;;21.38;;
84244;SDS011;74383;44.552;18.100;2024-03-23T07:31:12;37.20;;;21.48;;
84244;SDS011;74383;44.552;18.100;2024-03-23T07:33:43;38.03;;;21.07;;
84244;SDS011;74383;44.552;18.100;2024-03-23T07:36:09;34.83;;;19.77;;
84244;SDS011;74383;44.552;18.100;2024-03-23T07:38:34;37.90;;;20.63;;
84244;SDS011;74383;44.552;18.100;2024-03-23T07:41:04;35.70;;;20.60;;
84244;SDS011;74383;44.552;18.100;2024-03-23T07:43:32;35.88;;;21.52;;
84244;SDS011;74383;44.552;18.100;2024-03-23T07:45:58;39.65;;;20.17;;
84244;SDS011;74383;44.552;18.100;2024-03-23T07:48:24;33.83;;;20.58;;
84244;SDS011;74383;44.552;18.100;2024-03-23T07:51:00;31.65;;;19.23;;
84244;SDS011;74383;44.552;18.100;2024-03-23T07:53:30;31.63;;;19.30;;
84244;SDS011;74383;44.552;18.100;2024-03-23T07:55:57;33.00;;;17.83;;
84244;SDS011;74383;44.552;18.100;2024-03-23T07:58:24;30.80;;;18.73;;
84244;SDS011;74383;44.552;18.100;2024-03-23T08:00:51;30.85;;;19.55;;
84244;SDS011;74383;44.552;18.100;2024-03-23T08:03:18;31.95;;;18.33;;
84244;SDS011;74383;44.552;18.100;2024-03-23T08:05:43;31.70;;;17.52;;
84244;SDS011;74383;44.552;18.100;2024-03-23T08:08:09;26.35;;;16.50;;
84244;SDS011;74383;44.552;18.100;2024-03-23T08:10:36;26.33;;;16.45;;
84244;SDS011;74383;44.552;18.100;2024-03-23T08:13:02;27.67;;;16.15;;
84244;SDS011;74383;44.552;18.100;2024-03-23T08:15:29;19.63;;;14.35;;
84244;SDS011;74383;44.552;18.100;2024-03-23T08:17:58;19.35;;;13.75;;
84244;SDS011;74383;44.552;18.100;2024-03-23T08:20:24;22.85;;;13.60;;
84244;SDS011;74383;44.552;18.100;2024-03-23T08:22:49;20.20;;;12.15;;
84244;SDS011;74383;44.552;18.100;2024-03-23T08:25:15;18.00;;;12.57;;
84244;SDS011;74383;44.552;18.100;2024-03-23T08:27:43;23.30;;;13.02;;
84244;SDS011;74383;44.552;18.100;2024-03-23T08:30:10;19.58;;;13.00;;
84244;SDS011;74383;44.552;18.100;2024-03-23T08:32:36;22.85;;;13.88;;
84244;SDS011;74383;44.552;18.100;2024-03-23T08:35:01;23.23;;;13.35;;
84244;SDS011;74383;44.552;18.100;2024-03-23T08:37:27;20.33;;;12.85;;
84244;SDS011;74383;44.552;18.100;2024-03-23T08:39:53;22.35;;;13.40;;
84244;SDS011;74383;44.552;18.100;2024-03-23T08:42:18;26.00;;;13.23;;
84244;SDS011;74383;44.552;18.100;2024-03-23T08:44:44;20.70;;;12.15;;
84244;SDS011;74383;44.552;18.100;2024-03-23T08:47:11;21.52;;;12.25;;
84244;SDS011;74383;44.552;18.100;2024-03-23T08:49:37;22.10;;;12.75;;
84244;SDS011;74383;44.552;18.100;2024-03-23T08:52:02;24.88;;;12.88;;
84244;SDS011;74383;44.552;18.100;2024-03-23T08:54:28;24.50;;;12.65;;
84244;SDS011;74383;44.552;18.100;2024-03-23T08:56:56;18.58;;;11.75;;
84244;SDS011;74383;44.552;18.100;2024-03-23T08:59:21;22.58;;;12.40;;
84244;SDS011;74383;44.552;18.100;2024-03-23T09:01:49;21.85;;;11.23;;
84244;SDS011;74383;44.552;18.100;2024-03-23T09:04:14;17.27;;;11.13;;
84244;SDS011;74383;44.552;18.100;2024-03-23T09:06:42;17.02;;;9.30;;
84244;SDS011;74383;44.552;18.100;2024-03-23T09:09:08;19.40;;;10.55;;
84244;SDS011;74383;44.552;18.100;2024-03-23T09:11:33;11.20;;;8.23;;
84244;SDS011;74383;44.552;18.100;2024-03-23T09:13:59;10.77;;;7.18;;
84244;SDS011;74383;44.552;18.100;2024-03-23T09:16:24;10.90;;;6.88;;
84244;SDS011;74383;44.552;18.100;2024-03-23T09:18:51;9.88;;;6.63;;
84244;SDS011;74383;44.552;18.100;2024-03-23T09:21:17;10.40;;;6.57;;
84244;SDS011;74383;44.552;18.100;2024-03-23T09:23:43;10.65;;;6.97;;
84244;SDS011;74383;44.552;18.100;2024-03-23T09:26:09;12.65;;;6.70;;
84244;SDS011;74383;44.552;18.100;2024-03-23T09:28:35;12.38;;;7.82;;
84244;SDS011;74383;44.552;18.100;2024-03-23T09:31:04;11.75;;;7.75;;
84244;SDS011;74383;44.552;18.100;2024-03-23T09:33:34;10.50;;;7.05;;
84244;SDS011;74383;44.552;18.100;2024-03-23T09:36:04;8.75;;;6.38;;
84244;SDS011;74383;44.552;18.100;2024-03-23T09:38:29;10.20;;;6.97;;
84244;SDS011;74383;44.552;18.100;2024-03-23T09:40:56;9.48;;;6.45;;
84244;SDS011;74383;44.552;18.100;2024-03-23T09:43:22;8.32;;;6.32;;
84244;SDS011;74383;44.552;18.100;2024-03-23T09:45:48;10.43;;;6.32;;
84244;SDS011;74383;44.552;18.100;2024-03-23T09:48:14;10.35;;;6.47;;
84244;SDS011;74383;44.552;18.100;2024-03-23T09:50:40;11.40;;;6.68;;
84244;SDS011;74383;44.552;18.100;2024-03-23T09:53:07;9.95;;;7.10;;
84244;SDS011;74383;44.552;18.100;2024-03-23T09:55:34;7.38;;;5.40;;
84244;SDS011;74383;44.552;18.100;2024-03-23T09:58:03;14.40;;;8.18;;
84244;SDS011;74383;44.552;18.100;2024-03-23T10:00:30;12.38;;;8.00;;
84244;SDS011;74383;44.552;18.100;2024-03-23T10:02:56;10.52;;;6.72;;
84244;SDS011;74383;44.552;18.100;2024-03-23T10:05:30;12.68;;;7.60;;
84244;SDS011;74383;44.552;18.100;2024-03-23T10:10:39;9.48;;;7.03;;
84244;SDS011;74383;44.552;18.100;2024-03-23T10:13:05;9.10;;;6.13;;
84244;SDS011;74383;44.552;18.100;2024-03-23T10:15:31;9.57;;;6.50;;
84244;SDS011;74383;44.552;18.100;2024-03-23T10:18:04;13.32;;;5.97;;
84244;SDS011;74383;44.552;18.100;2024-03-23T10:21:19;8.60;;;6.25;;
84244;SDS011;74383;44.552;18.100;2024-03-23T10:23:44;8.48;;;5.50;;
84244;SDS011;74383;44.552;18.100;2024-03-23T10:26:21;7.65;;;5.60;;
84244;SDS011;74383;44.552;18.100;2024-03-23T10:29:00;7.60;;;5.30;;
84244;SDS011;74383;44.552;18.100;2024-03-23T10:31:32;6.82;;;5.40;;
84244;SDS011;74383;44.552;18.100;2024-03-23T10:33:58;13.15;;;5.65;;
84244;SDS011;74383;44.552;18.100;2024-03-23T10:36:25;7.50;;;5.40;;
84244;SDS011;74383;44.552;18.100;2024-03-23T10:38:52;7.10;;;5.57;;
84244;SDS011;74383;44.552;18.100;2024-03-23T10:41:19;7.47;;;6.03;;
84244;SDS011;74383;44.552;18.100;2024-03-23T10:43:45;7.18;;;5.35;;
84244;SDS011;74383;44.552;18.100;2024-03-23T10:46:12;9.95;;;4.90;;
84244;SDS011;74383;44.552;18.100;2024-03-23T10:48:37;9.10;;;5.55;;
84244;SDS011;74383;44.552;18.100;2024-03-23T10:51:03;8.35;;;6.18;;
84244;SDS011;74383;44.552;18.100;2024-03-23T10:53:32;10.60;;;6.10;;
84244;SDS011;74383;44.552;18.100;2024-03-23T10:55:59;6.72;;;5.50;;
84244;SDS011;74383;44.552;18.100;2024-03-23T10:58:38;7.18;;;5.47;;
84244;SDS011;74383;44.552;18.100;2024-03-23T11:01:05;6.43;;;5.00;;
84244;SDS011;74383;44.552;18.100;2024-03-23T11:06:04;8.23;;;5.45;;
84244;SDS011;74383;44.552;18.100;2024-03-23T11:08:37;7.32;;;5.85;;
84244;SDS011;74383;44.552;18.100;2024-03-23T11:13:43;9.75;;;6.82;;
84244;SDS011;74383;44.552;18.100;2024-03-23T11:18:49;8.40;;;5.40;;
84244;SDS011;74383;44.552;18.100;2024-03-23T11:24:20;9.03;;;5.60;;
84244;SDS011;74383;44.552;18.100;2024-03-23T11:26:47;8.00;;;5.45;;
84244;SDS011;74383;44.552;18.100;2024-03-23T11:29:16;8.68;;;5.72;;
84244;SDS011;74383;44.552;18.100;2024-03-23T11:31:50;9.57;;;6.03;;
84244;SDS011;74383;44.552;18.100;2024-03-23T11:34:17;10.68;;;6.47;;
84244;SDS011;74383;44.552;18.100;2024-03-23T11:36:44;9.13;;;6.20;;
84244;SDS011;74383;44.552;18.100;2024-03-23T11:41:50;7.78;;;6.25;;
84244;SDS011;74383;44.552;18.100;2024-03-23T11:44:17;9.50;;;5.80;;
84244;SDS011;74383;44.552;18.100;2024-03-23T11:46:43;11.05;;;6.85;;
84244;SDS011;74383;44.552;18.100;2024-03-23T11:49:42;8.15;;;5.82;;
84244;SDS011;74383;44.552;18.100;2024-03-23T11:52:06;10.73;;;6.07;;
84244;SDS011;74383;44.552;18.100;2024-03-23T11:54:32;11.68;;;6.30;;
84244;SDS011;74383;44.552;18.100;2024-03-23T11:56:59;8.82;;;5.15;;
84244;SDS011;74383;44.552;18.100;2024-03-23T11:59:31;9.40;;;5.72;;
84244;SDS011;74383;44.552;18.100;2024-03-23T12:02:05;7.35;;;5.35;;
84244;SDS011;74383;44.552;18.100;2024-03-23T12:04:32;7.63;;;5.00;;
84244;SDS011;74383;44.552;18.100;2024-03-23T12:07:11;7.65;;;5.97;;
84244;SDS011;74383;44.552;18.100;2024-03-23T12:09:40;14.35;;;7.30;;
84244;SDS011;74383;44.552;18.100;2024-03-23T12:12:18;8.88;;;6.10;;
84244;SDS011;74383;44.552;18.100;2024-03-23T12:14:44;11.38;;;6.13;;
84244;SDS011;74383;44.552;18.100;2024-03-23T12:17:12;7.85;;;5.25;;
84244;SDS011;74383;44.552;18.100;2024-03-23T12:19:39;7.43;;;5.82;;
84244;SDS011;74383;44.552;18.100;2024-03-23T12:22:06;9.50;;;5.70;;
84244;SDS011;74383;44.552;18.100;2024-03-23T12:24:32;18.27;;;6.07;;
84244;SDS011;74383;44.552;18.100;2024-03-23T12:27:04;16.02;;;5.97;;
84244;SDS011;74383;44.552;18.100;2024-03-23T12:29:31;7.55;;;4.90;;
84244;SDS011;74383;44.552;18.100;2024-03-23T12:32:00;8.95;;;5.05;;
84244;SDS011;74383;44.552;18.100;2024-03-23T12:34:27;7.50;;;4.75;;
84244;SDS011;74383;44.552;18.100;2024-03-23T12:36:53;10.57;;;5.22;;
84244;SDS011;74383;44.552;18.100;2024-03-23T12:39:19;7.05;;;4.97;;
84244;SDS011;74383;44.552;18.100;2024-03-23T12:41:48;6.93;;;5.13;;
84244;SDS011;74383;44.552;18.100;2024-03-23T12:44:14;11.95;;;5.22;;
84244;SDS011;74383;44.552;18.100;2024-03-23T12:46:41;9.93;;;6.00;;
84244;SDS011;74383;44.552;18.100;2024-03-23T12:49:07;15.23;;;4.97;;
84244;SDS011;74383;44.552;18.100;2024-03-23T12:51:33;8.75;;;4.70;;
84244;SDS011;74383;44.552;18.100;2024-03-23T12:53:58;14.23;;;5.53;;
84244;SDS011;74383;44.552;18.100;2024-03-23T12:56:24;6.57;;;4.43;;
84244;SDS011;74383;44.552;18.100;2024-03-23T12:58:50;5.97;;;4.45;;
84244;SDS011;74383;44.552;18.100;2024-03-23T13:01:19;6.88;;;4.07;;
84244;SDS011;74383;44.552;18.100;2024-03-23T13:03:48;9.68;;;4.00;;
84244;SDS011;74383;44.552;18.100;2024-03-23T13:06:14;8.80;;;4.03;;
84244;SDS011;74383;44.552;18.100;2024-03-23T13:08:40;5.82;;;3.80;;
84244;SDS011;74383;44.552;18.100;2024-03-23T13:11:09;15.18;;;4.88;;
84244;SDS011;74383;44.552;18.100;2024-03-23T13:13:36;13.43;;;4.53;;
84244;SDS011;74383;44.552;18.100;2024-03-23T13:16:02;7.05;;;3.63;;
84244;SDS011;74383;44.552;18.100;2024-03-23T13:18:29;6.05;;;4.20;;
84244;SDS011;74383;44.552;18.100;2024-03-23T13:20:55;6.93;;;4.40;;
84244;SDS011;74383;44.552;18.100;2024-03-23T13:23:20;9.60;;;4.60;;
84244;SDS011;74383;44.552;18.100;2024-03-23T13:25:52;10.70;;;4.50;;
84244;SDS011;74383;44.552;18.100;2024-03-23T13:28:19;7.78;;;4.03;;
84244;SDS011;74383;44.552;18.100;2024-03-23T13:30:55;8.20;;;4.00;;
84244;SDS011;74383;44.552;18.100;2024-03-23T13:33:21;4.63;;;4.03;;
84244;SDS011;74383;44.552;18.100;2024-03-23T13:35:54;6.65;;;4.10;;
84244;SDS011;74383;44.552;18.100;2024-03-23T13:38:21;7.80;;;4.20;;
84244;SDS011;74383;44.552;18.100;2024-03-23T13:40:54;7.03;;;4.30;;
84244;SDS011;74383;44.552;18.100;2024-03-23T13:43:21;4.88;;;4.15;;
84244;SDS011;74383;44.552;18.100;2024-03-23T13:45:48;9.15;;;4.80;;
84244;SDS011;74383;44.552;18.100;2024-03-23T13:48:17;8.63;;;5.03;;
84244;SDS011;74383;44.552;18.100;2024-03-23T13:50:44;5.50;;;4.43;;
84244;SDS011;74383;44.552;18.100;2024-03-23T13:53:10;11.57;;;4.60;;
84244;SDS011;74383;44.552;18.100;2024-03-23T13:55:35;7.93;;;4.55;;
84244;SDS011;74383;44.552;18.100;2024-03-23T13:58:01;14.32;;;5.38;;
84244;SDS011;74383;44.552;18.100;2024-03-23T14:00:29;7.22;;;4.60;;
84244;SDS011;74383;44.552;18.100;2024-03-23T14:02:57;6.68;;;4.38;;
84244;SDS011;74383;44.552;18.100;2024-03-23T14:05:23;7.68;;;4.47;;
84244;SDS011;74383;44.552;18.100;2024-03-23T14:07:50;6.47;;;4.30;;
84244;SDS011;74383;44.552;18.100;2024-03-23T14:10:16;7.45;;;4.78;;
84244;SDS011;74383;44.552;18.100;2024-03-23T14:12:41;8.45;;;5.03;;
84244;SDS011;74383;44.552;18.100;2024-03-23T14:15:07;10.82;;;4.47;;
84244;SDS011;74383;44.552;18.100;2024-03-23T14:17:33;6.00;;;4.30;;
84244;SDS011;74383;44.552;18.100;2024-03-23T14:19:59;5.65;;;4.60;;
84244;SDS011;74383;44.552;18.100;2024-03-23T14:22:30;8.40;;;4.25;;
84244;SDS011;74383;44.552;18.100;2024-03-23T14:24:57;5.95;;;4.32;;
84244;SDS011;74383;44.552;18.100;2024-03-23T14:27:23;6.03;;;3.97;;
84244;SDS011;74383;44.552;18.100;2024-03-23T14:29:49;5.68;;;4.18;;
84244;SDS011;74383;44.552;18.100;2024-03-23T14:32:15;5.80;;;4.40;;
84244;SDS011;74383;44.552;18.100;2024-03-23T14:34:41;11.90;;;4.18;;
84244;SDS011;74383;44.552;18.100;2024-03-23T14:37:06;5.68;;;4.45;;
84244;SDS011;74383;44.552;18.100;2024-03-23T14:39:32;8.55;;;4.22;;
84244;SDS011;74383;44.552;18.100;2024-03-23T14:42:04;6.60;;;3.80;;
84244;SDS011;74383;44.552;18.100;2024-03-23T14:44:31;6.15;;;4.88;;
84244;SDS011;74383;44.552;18.100;2024-03-23T14:46:57;10.02;;;5.32;;
84244;SDS011;74383;44.552;18.100;2024-03-23T14:49:22;5.90;;;4.32;;
84244;SDS011;74383;44.552;18.100;2024-03-23T14:51:49;6.57;;;4.43;;
84244;SDS011;74383;44.552;18.100;2024-03-23T14:54:15;7.70;;;4.32;;
84244;SDS011;74383;44.552;18.100;2024-03-23T14:56:40;5.93;;;3.97;;
84244;SDS011;74383;44.552;18.100;2024-03-23T14:59:06;9.20;;;4.22;;
84244;SDS011;74383;44.552;18.100;2024-03-23T15:01:33;7.50;;;4.00;;
84244;SDS011;74383;44.552;18.100;2024-03-23T15:03:59;6.97;;;4.00;;
84244;SDS011;74383;44.552;18.100;2024-03-23T15:06:25;5.60;;;4.07;;
84244;SDS011;74383;44.552;18.100;2024-03-23T15:08:50;8.30;;;4.45;;
84244;SDS011;74383;44.552;18.100;2024-03-23T15:11:16;7.05;;;4.38;;
84244;SDS011;74383;44.552;18.100;2024-03-23T15:13:44;8.10;;;4.63;;
84244;SDS011;74383;44.552;18.100;2024-03-23T15:16:10;7.65;;;4.40;;
84244;SDS011;74383;44.552;18.100;2024-03-23T15:18:36;5.60;;;4.63;;
84244;SDS011;74383;44.552;18.100;2024-03-23T15:21:03;6.40;;;4.40;;
84244;SDS011;74383;44.552;18.100;2024-03-23T15:23:33;8.07;;;4.60;;
84244;SDS011;74383;44.552;18.100;2024-03-23T15:25:59;8.23;;;5.40;;
84244;SDS011;74383;44.552;18.100;2024-03-23T15:28:28;10.10;;;5.53;;
84244;SDS011;74383;44.552;18.100;2024-03-23T15:31:06;9.30;;;5.43;;